sensor_id;sensor_type;location;lat;lon;timestamp;P1;durP1;ratioP1;P2;durP2;ratioP2
56345;SDS011;42246;46.096;13.644;2022-10-16T00:02:19;17.00;;;9.73;;
56345;SDS011;42246;46.096;13.644;2022-10-16T00:04:44;15.10;;;10.63;;
56345;SDS011;42246;46.096;13.644;2022-10-16T00:07:10;17.42;;;9.27;;
56345;SDS011;42246;46.096;13.644;2022-10-16T00:09:35;22.05;;;12.30;;
56345;SDS011;42246;46.096;13.644;2022-10-16T00:12:01;18.30;;;10.60;;
56345;SDS011;42246;46.096;13.644;2022-10-16T00:14:28;18.83;;;10.85;;
56345;SDS011;42246;46.096;13.644;2022-10-16T00:16:54;21.17;;;11.38;;
56345;SDS011;42246;46.096;13.644;2022-10-16T00:19:19;24.17;;;11.93;;
56345;SDS011;42246;46.096;13.644;2022-10-16T00:21:45;21.10;;;12.73;;
56345;SDS011;42246;46.096;13.644;2022-10-16T00:24:10;19.27;;;10.70;;
56345;SDS011;42246;46.096;13.644;2022-10-16T00:26:36;19.38;;;9.80;;
56345;SDS011;42246;46.096;13.644;2022-10-16T00:29:03;16.38;;;10.05;;
56345;SDS011;42246;46.096;13.644;2022-10-16T00:31:29;15.55;;;9.98;;
56345;SDS011;42246;46.096;13.644;2022-10-16T00:33:54;15.35;;;8.95;;
56345;SDS011;42246;46.096;13.644;2022-10-16T00:36:21;19.40;;;11.43;;
56345;SDS011;42246;46.096;13.644;2022-10-16T00:38:50;18.02;;;11.43;;
56345;SDS011;42246;46.096;13.644;2022-10-16T00:41:18;18.88;;;10.68;;
56345;SDS011;42246;46.096;13.644;2022-10-16T00:43:45;16.70;;;9.18;;
56345;SDS011;42246;46.096;13.644;2022-10-16T00:46:13;17.50;;;11.02;;
56345;SDS011;42246;46.096;13.644;2022-10-16T00:48:43;18.13;;;10.65;;
56345;SDS011;42246;46.096;13.644;2022-10-16T00:51:14;15.38;;;9.35;;
56345;SDS011;42246;46.096;13.644;2022-10-16T00:53:39;17.02;;;9.70;;
56345;SDS011;42246;46.096;13.644;2022-10-16T00:56:05;14.93;;;9.57;;
56345;SDS011;42246;46.096;13.644;2022-10-16T00:58:31;15.55;;;9.60;;
56345;SDS011;42246;46.096;13.644;2022-10-16T01:00:57;18.15;;;10.30;;
56345;SDS011;42246;46.096;13.644;2022-10-16T01:03:30;18.15;;;10.35;;
56345;SDS011;42246;46.096;13.644;2022-10-16T01:08:46;18.23;;;11.35;;
56345;SDS011;42246;46.096;13.644;2022-10-16T01:11:22;19.40;;;9.63;;
56345;SDS011;42246;46.096;13.644;2022-10-16T01:13:53;21.77;;;11.13;;
56345;SDS011;42246;46.096;13.644;2022-10-16T01:16:24;18.52;;;9.05;;
56345;SDS011;42246;46.096;13.644;2022-10-16T01:21:44;24.52;;;10.25;;
56345;SDS011;42246;46.096;13.644;2022-10-16T01:29:56;18.73;;;10.65;;
56345;SDS011;42246;46.096;13.644;2022-10-16T01:35:25;20.35;;;11.82;;
56345;SDS011;42246;46.096;13.644;2022-10-16T01:40:28;16.45;;;9.43;;
56345;SDS011;42246;46.096;13.644;2022-10-16T01:43:05;16.65;;;9.50;;
56345;SDS011;42246;46.096;13.644;2022-10-16T01:45:34;15.73;;;10.52;;
56345;SDS011;42246;46.096;13.644;2022-10-16T01:48:01;18.88;;;11.13;;
56345;SDS011;42246;46.096;13.644;2022-10-16T01:50:30;15.93;;;9.18;;
56345;SDS011;42246;46.096;13.644;2022-10-16T01:52:57;15.32;;;10.43;;
56345;SDS011;42246;46.096;13.644;2022-10-16T01:55:30;25.50;;;12.80;;
56345;SDS011;42246;46.096;13.644;2022-10-16T01:57:59;17.85;;;9.27;;
56345;SDS011;42246;46.096;13.644;2022-10-16T02:00:26;22.73;;;10.10;;
56345;SDS011;42246;46.096;13.644;2022-10-16T02:02:53;15.90;;;9.93;;
56345;SDS011;42246;46.096;13.644;2022-10-16T02:07:52;16.13;;;8.73;;
56345;SDS011;42246;46.096;13.644;2022-10-16T02:10:18;21.40;;;11.10;;
56345;SDS011;42246;46.096;13.644;2022-10-16T02:12:50;17.58;;;10.65;;
56345;SDS011;42246;46.096;13.644;2022-10-16T02:15:20;17.73;;;8.95;;
56345;SDS011;42246;46.096;13.644;2022-10-16T02:17:46;21.50;;;12.13;;
56345;SDS011;42246;46.096;13.644;2022-10-16T02:20:11;18.42;;;10.10;;
56345;SDS011;42246;46.096;13.644;2022-10-16T02:22:41;21.95;;;10.45;;
56345;SDS011;42246;46.096;13.644;2022-10-16T02:25:17;17.70;;;11.40;;
56345;SDS011;42246;46.096;13.644;2022-10-16T02:28:12;18.40;;;9.93;;
56345;SDS011;42246;46.096;13.644;2022-10-16T02:30:43;17.55;;;10.32;;
56345;SDS011;42246;46.096;13.644;2022-10-16T02:33:13;21.10;;;9.90;;
56345;SDS011;42246;46.096;13.644;2022-10-16T02:35:40;20.92;;;10.90;;
56345;SDS011;42246;46.096;13.644;2022-10-16T02:38:07;19.50;;;10.82;;
56345;SDS011;42246;46.096;13.644;2022-10-16T02:40:33;16.75;;;9.65;;
56345;SDS011;42246;46.096;13.644;2022-10-16T02:42:59;16.15;;;9.40;;
56345;SDS011;42246;46.096;13.644;2022-10-16T02:45:25;18.60;;;9.95;;
56345;SDS011;42246;46.096;13.644;2022-10-16T02:47:50;17.75;;;9.65;;
56345;SDS011;42246;46.096;13.644;2022-10-16T02:50:16;16.75;;;9.00;;
56345;SDS011;42246;46.096;13.644;2022-10-16T02:52:42;19.80;;;9.95;;
56345;SDS011;42246;46.096;13.644;2022-10-16T02:55:08;13.75;;;9.55;;
56345;SDS011;42246;46.096;13.644;2022-10-16T02:57:34;20.17;;;11.60;;
56345;SDS011;42246;46.096;13.644;2022-10-16T03:00:02;17.95;;;10.85;;
56345;SDS011;42246;46.096;13.644;2022-10-16T03:02:28;23.75;;;11.95;;
56345;SDS011;42246;46.096;13.644;2022-10-16T03:04:54;15.77;;;9.40;;
56345;SDS011;42246;46.096;13.644;2022-10-16T03:07:19;16.67;;;9.65;;
56345;SDS011;42246;46.096;13.644;2022-10-16T03:09:45;16.17;;;9.13;;
56345;SDS011;42246;46.096;13.644;2022-10-16T03:12:10;16.77;;;9.98;;
56345;SDS011;42246;46.096;13.644;2022-10-16T03:14:37;19.58;;;12.68;;
56345;SDS011;42246;46.096;13.644;2022-10-16T03:17:02;21.33;;;12.23;;
56345;SDS011;42246;46.096;13.644;2022-10-16T03:19:28;24.80;;;12.93;;
56345;SDS011;42246;46.096;13.644;2022-10-16T03:21:53;36.63;;;17.77;;
56345;SDS011;42246;46.096;13.644;2022-10-16T03:24:19;27.63;;;15.40;;
56345;SDS011;42246;46.096;13.644;2022-10-16T03:26:44;18.60;;;12.07;;
56345;SDS011;42246;46.096;13.644;2022-10-16T03:29:09;19.65;;;11.88;;
56345;SDS011;42246;46.096;13.644;2022-10-16T03:31:35;19.45;;;11.07;;
56345;SDS011;42246;46.096;13.644;2022-10-16T03:34:00;17.67;;;10.95;;
56345;SDS011;42246;46.096;13.644;2022-10-16T03:36:26;21.30;;;12.95;;
56345;SDS011;42246;46.096;13.644;2022-10-16T03:38:51;22.35;;;11.90;;
56345;SDS011;42246;46.096;13.644;2022-10-16T03:41:17;22.48;;;12.13;;
56345;SDS011;42246;46.096;13.644;2022-10-16T03:43:42;19.98;;;14.05;;
56345;SDS011;42246;46.096;13.644;2022-10-16T03:46:08;18.38;;;10.88;;
56345;SDS011;42246;46.096;13.644;2022-10-16T03:48:33;14.30;;;8.88;;
56345;SDS011;42246;46.096;13.644;2022-10-16T03:50:59;18.05;;;9.98;;
56345;SDS011;42246;46.096;13.644;2022-10-16T03:53:24;23.83;;;13.13;;
56345;SDS011;42246;46.096;13.644;2022-10-16T03:55:50;16.70;;;10.27;;
56345;SDS011;42246;46.096;13.644;2022-10-16T03:58:16;21.15;;;12.02;;
56345;SDS011;42246;46.096;13.644;2022-10-16T04:00:45;17.70;;;10.98;;
56345;SDS011;42246;46.096;13.644;2022-10-16T04:03:12;20.63;;;11.70;;
56345;SDS011;42246;46.096;13.644;2022-10-16T04:05:38;16.42;;;9.32;;
56345;SDS011;42246;46.096;13.644;2022-10-16T04:08:03;15.13;;;8.68;;
56345;SDS011;42246;46.096;13.644;2022-10-16T04:10:29;15.00;;;9.07;;
56345;SDS011;42246;46.096;13.644;2022-10-16T04:12:55;17.13;;;9.98;;
56345;SDS011;42246;46.096;13.644;2022-10-16T04:15:24;19.45;;;9.35;;
56345;SDS011;42246;46.096;13.644;2022-10-16T04:17:50;13.63;;;8.43;;
56345;SDS011;42246;46.096;13.644;2022-10-16T04:20:16;15.43;;;9.18;;
56345;SDS011;42246;46.096;13.644;2022-10-16T04:22:42;18.70;;;9.52;;
56345;SDS011;42246;46.096;13.644;2022-10-16T04:25:08;15.82;;;8.80;;
56345;SDS011;42246;46.096;13.644;2022-10-16T04:27:34;14.63;;;8.80;;
56345;SDS011;42246;46.096;13.644;2022-10-16T04:30:00;14.57;;;9.10;;
56345;SDS011;42246;46.096;13.644;2022-10-16T04:32:26;15.00;;;8.73;;
56345;SDS011;42246;46.096;13.644;2022-10-16T04:34:51;13.57;;;8.30;;
56345;SDS011;42246;46.096;13.644;2022-10-16T04:37:17;20.48;;;11.25;;
56345;SDS011;42246;46.096;13.644;2022-10-16T04:39:42;17.08;;;9.05;;
56345;SDS011;42246;46.096;13.644;2022-10-16T04:42:08;15.90;;;10.13;;
56345;SDS011;42246;46.096;13.644;2022-10-16T04:44:34;18.13;;;9.70;;
56345;SDS011;42246;46.096;13.644;2022-10-16T04:46:59;18.80;;;11.27;;
56345;SDS011;42246;46.096;13.644;2022-10-16T04:49:25;19.70;;;9.85;;
56345;SDS011;42246;46.096;13.644;2022-10-16T04:51:51;16.02;;;9.45;;
56345;SDS011;42246;46.096;13.644;2022-10-16T04:54:16;18.80;;;10.20;;
56345;SDS011;42246;46.096;13.644;2022-10-16T04:56:42;17.58;;;9.70;;
56345;SDS011;42246;46.096;13.644;2022-10-16T04:59:15;16.17;;;8.65;;
56345;SDS011;42246;46.096;13.644;2022-10-16T05:01:41;16.98;;;10.15;;
56345;SDS011;42246;46.096;13.644;2022-10-16T05:04:07;18.60;;;10.60;;
56345;SDS011;42246;46.096;13.644;2022-10-16T05:06:32;15.20;;;8.77;;
56345;SDS011;42246;46.096;13.644;2022-10-16T05:08:58;20.63;;;11.77;;
56345;SDS011;42246;46.096;13.644;2022-10-16T05:11:23;17.38;;;9.32;;
56345;SDS011;42246;46.096;13.644;2022-10-16T05:13:49;21.67;;;10.43;;
56345;SDS011;42246;46.096;13.644;2022-10-16T05:16:14;17.67;;;10.32;;
56345;SDS011;42246;46.096;13.644;2022-10-16T05:18:40;18.60;;;9.82;;
56345;SDS011;42246;46.096;13.644;2022-10-16T05:21:06;16.15;;;8.57;;
56345;SDS011;42246;46.096;13.644;2022-10-16T05:23:31;16.58;;;9.13;;
56345;SDS011;42246;46.096;13.644;2022-10-16T05:25:57;15.15;;;10.18;;
56345;SDS011;42246;46.096;13.644;2022-10-16T05:28:23;18.10;;;10.95;;
56345;SDS011;42246;46.096;13.644;2022-10-16T05:30:50;19.27;;;9.43;;
56345;SDS011;42246;46.096;13.644;2022-10-16T05:33:15;15.02;;;9.40;;
56345;SDS011;42246;46.096;13.644;2022-10-16T05:35:41;17.40;;;9.38;;
56345;SDS011;42246;46.096;13.644;2022-10-16T05:38:07;17.10;;;9.23;;
56345;SDS011;42246;46.096;13.644;2022-10-16T05:40:33;19.27;;;9.73;;
56345;SDS011;42246;46.096;13.644;2022-10-16T05:42:58;14.70;;;7.95;;
56345;SDS011;42246;46.096;13.644;2022-10-16T05:45:24;19.25;;;8.77;;
56345;SDS011;42246;46.096;13.644;2022-10-16T05:47:49;16.08;;;10.15;;
56345;SDS011;42246;46.096;13.644;2022-10-16T05:50:15;16.65;;;9.00;;
56345;SDS011;42246;46.096;13.644;2022-10-16T05:52:40;11.93;;;8.23;;
56345;SDS011;42246;46.096;13.644;2022-10-16T05:55:06;20.10;;;10.45;;
56345;SDS011;42246;46.096;13.644;2022-10-16T05:57:32;20.45;;;9.20;;
56345;SDS011;42246;46.096;13.644;2022-10-16T05:59:57;16.42;;;9.52;;
56345;SDS011;42246;46.096;13.644;2022-10-16T06:02:23;13.65;;;7.28;;
56345;SDS011;42246;46.096;13.644;2022-10-16T06:04:48;15.68;;;8.20;;
56345;SDS011;42246;46.096;13.644;2022-10-16T06:07:13;17.73;;;11.48;;
56345;SDS011;42246;46.096;13.644;2022-10-16T06:09:39;18.50;;;9.95;;
56345;SDS011;42246;46.096;13.644;2022-10-16T06:12:05;21.50;;;11.20;;
56345;SDS011;42246;46.096;13.644;2022-10-16T06:14:30;15.15;;;8.25;;
56345;SDS011;42246;46.096;13.644;2022-10-16T06:16:56;16.80;;;9.60;;
56345;SDS011;42246;46.096;13.644;2022-10-16T06:19:22;14.63;;;8.70;;
56345;SDS011;42246;46.096;13.644;2022-10-16T06:21:47;16.60;;;9.77;;
56345;SDS011;42246;46.096;13.644;2022-10-16T06:24:13;15.25;;;8.40;;
56345;SDS011;42246;46.096;13.644;2022-10-16T06:26:39;17.95;;;9.30;;
56345;SDS011;42246;46.096;13.644;2022-10-16T06:29:04;14.93;;;8.82;;
56345;SDS011;42246;46.096;13.644;2022-10-16T06:31:29;17.73;;;9.70;;
56345;SDS011;42246;46.096;13.644;2022-10-16T06:33:58;14.32;;;7.80;;
56345;SDS011;42246;46.096;13.644;2022-10-16T06:36:24;13.77;;;8.43;;
56345;SDS011;42246;46.096;13.644;2022-10-16T06:38:50;13.65;;;8.50;;
56345;SDS011;42246;46.096;13.644;2022-10-16T06:41:16;18.10;;;9.25;;
56345;SDS011;42246;46.096;13.644;2022-10-16T06:43:44;15.52;;;9.25;;
56345;SDS011;42246;46.096;13.644;2022-10-16T06:46:10;14.13;;;9.48;;
56345;SDS011;42246;46.096;13.644;2022-10-16T06:48:36;14.13;;;8.65;;
56345;SDS011;42246;46.096;13.644;2022-10-16T06:51:04;18.35;;;10.73;;
56345;SDS011;42246;46.096;13.644;2022-10-16T06:53:32;16.80;;;9.85;;
56345;SDS011;42246;46.096;13.644;2022-10-16T06:56:08;16.98;;;9.55;;
56345;SDS011;42246;46.096;13.644;2022-10-16T06:58:41;15.18;;;8.45;;
56345;SDS011;42246;46.096;13.644;2022-10-16T07:01:07;15.80;;;9.27;;
56345;SDS011;42246;46.096;13.644;2022-10-16T07:03:32;16.73;;;9.40;;
56345;SDS011;42246;46.096;13.644;2022-10-16T07:06:02;15.05;;;8.93;;
56345;SDS011;42246;46.096;13.644;2022-10-16T07:08:30;17.73;;;9.48;;
56345;SDS011;42246;46.096;13.644;2022-10-16T07:10:58;14.70;;;9.10;;
56345;SDS011;42246;46.096;13.644;2022-10-16T07:13:26;17.00;;;9.27;;
56345;SDS011;42246;46.096;13.644;2022-10-16T07:15:52;19.20;;;9.85;;
56345;SDS011;42246;46.096;13.644;2022-10-16T07:18:17;16.30;;;9.50;;
56345;SDS011;42246;46.096;13.644;2022-10-16T07:20:43;16.63;;;8.52;;
56345;SDS011;42246;46.096;13.644;2022-10-16T07:23:09;18.00;;;10.90;;
56345;SDS011;42246;46.096;13.644;2022-10-16T07:25:34;14.02;;;9.63;;
56345;SDS011;42246;46.096;13.644;2022-10-16T07:27:59;15.60;;;9.00;;
56345;SDS011;42246;46.096;13.644;2022-10-16T07:30:25;17.52;;;10.43;;
56345;SDS011;42246;46.096;13.644;2022-10-16T07:32:50;14.10;;;8.60;;
56345;SDS011;42246;46.096;13.644;2022-10-16T07:35:16;16.30;;;9.02;;
56345;SDS011;42246;46.096;13.644;2022-10-16T07:37:45;14.32;;;7.00;;
56345;SDS011;42246;46.096;13.644;2022-10-16T07:40:11;13.65;;;9.82;;
56345;SDS011;42246;46.096;13.644;2022-10-16T07:42:37;15.95;;;9.20;;
56345;SDS011;42246;46.096;13.644;2022-10-16T07:45:02;16.15;;;10.00;;
56345;SDS011;42246;46.096;13.644;2022-10-16T07:47:28;14.18;;;8.55;;
56345;SDS011;42246;46.096;13.644;2022-10-16T07:49:54;14.80;;;8.75;;
56345;SDS011;42246;46.096;13.644;2022-10-16T07:52:19;12.57;;;9.77;;
56345;SDS011;42246;46.096;13.644;2022-10-16T07:54:44;15.23;;;9.43;;
56345;SDS011;42246;46.096;13.644;2022-10-16T07:57:10;12.80;;;8.35;;
56345;SDS011;42246;46.096;13.644;2022-10-16T07:59:35;15.45;;;9.10;;
56345;SDS011;42246;46.096;13.644;2022-10-16T08:02:01;16.80;;;10.05;;
56345;SDS011;42246;46.096;13.644;2022-10-16T08:04:26;14.15;;;8.07;;
56345;SDS011;42246;46.096;13.644;2022-10-16T08:06:52;14.40;;;9.02;;
56345;SDS011;42246;46.096;13.644;2022-10-16T08:09:19;15.45;;;8.73;;
56345;SDS011;42246;46.096;13.644;2022-10-16T08:11:44;11.10;;;8.45;;
56345;SDS011;42246;46.096;13.644;2022-10-16T08:14:10;15.27;;;8.05;;
56345;SDS011;42246;46.096;13.644;2022-10-16T08:16:35;14.23;;;9.00;;
56345;SDS011;42246;46.096;13.644;2022-10-16T08:19:01;12.50;;;7.47;;
56345;SDS011;42246;46.096;13.644;2022-10-16T08:21:26;13.35;;;7.95;;
56345;SDS011;42246;46.096;13.644;2022-10-16T08:23:53;15.20;;;10.40;;
56345;SDS011;42246;46.096;13.644;2022-10-16T08:26:19;17.65;;;9.38;;
56345;SDS011;42246;46.096;13.644;2022-10-16T08:28:45;11.15;;;6.43;;
56345;SDS011;42246;46.096;13.644;2022-10-16T08:31:11;14.23;;;8.20;;
56345;SDS011;42246;46.096;13.644;2022-10-16T08:33:39;10.60;;;7.55;;
56345;SDS011;42246;46.096;13.644;2022-10-16T08:36:06;12.85;;;7.82;;
56345;SDS011;42246;46.096;13.644;2022-10-16T08:38:32;11.98;;;8.23;;
56345;SDS011;42246;46.096;13.644;2022-10-16T08:41:02;16.02;;;8.63;;
56345;SDS011;42246;46.096;13.644;2022-10-16T08:49:55;13.52;;;8.05;;
56345;SDS011;42246;46.096;13.644;2022-10-16T08:52:22;20.67;;;9.15;;
56345;SDS011;42246;46.096;13.644;2022-10-16T08:54:51;12.85;;;7.30;;
56345;SDS011;42246;46.096;13.644;2022-10-16T08:57:20;14.13;;;8.63;;
56345;SDS011;42246;46.096;13.644;2022-10-16T08:59:46;10.88;;;7.82;;
56345;SDS011;42246;46.096;13.644;2022-10-16T09:13:09;11.05;;;5.97;;
56345;SDS011;42246;46.096;13.644;2022-10-16T09:15:55;17.52;;;10.32;;
56345;SDS011;42246;46.096;13.644;2022-10-16T09:23:43;22.60;;;12.77;;
56345;SDS011;42246;46.096;13.644;2022-10-16T09:26:09;15.77;;;10.55;;
56345;SDS011;42246;46.096;13.644;2022-10-16T09:28:37;18.35;;;10.80;;
56345;SDS011;42246;46.096;13.644;2022-10-16T09:31:02;13.50;;;9.38;;
56345;SDS011;42246;46.096;13.644;2022-10-16T09:33:37;16.77;;;8.73;;
56345;SDS011;42246;46.096;13.644;2022-10-16T09:36:04;14.68;;;8.98;;
56345;SDS011;42246;46.096;13.644;2022-10-16T09:38:31;18.10;;;9.57;;
56345;SDS011;42246;46.096;13.644;2022-10-16T09:40:59;12.02;;;7.22;;
56345;SDS011;42246;46.096;13.644;2022-10-16T09:43:32;12.60;;;8.68;;
56345;SDS011;42246;46.096;13.644;2022-10-16T09:46:02;12.07;;;7.35;;
56345;SDS011;42246;46.096;13.644;2022-10-16T09:48:44;10.88;;;7.68;;
56345;SDS011;42246;46.096;13.644;2022-10-16T09:51:32;16.08;;;9.88;;
56345;SDS011;42246;46.096;13.644;2022-10-16T09:56:35;14.27;;;8.60;;
56345;SDS011;42246;46.096;13.644;2022-10-16T10:02:00;14.20;;;9.45;;
56345;SDS011;42246;46.096;13.644;2022-10-16T10:04:36;16.30;;;8.45;;
56345;SDS011;42246;46.096;13.644;2022-10-16T10:07:03;14.60;;;7.07;;
56345;SDS011;42246;46.096;13.644;2022-10-16T10:09:31;13.10;;;8.90;;
56345;SDS011;42246;46.096;13.644;2022-10-16T10:12:03;15.48;;;8.13;;
56345;SDS011;42246;46.096;13.644;2022-10-16T10:17:07;18.02;;;9.23;;
56345;SDS011;42246;46.096;13.644;2022-10-16T10:22:46;12.93;;;8.30;;
56345;SDS011;42246;46.096;13.644;2022-10-16T10:25:14;15.70;;;9.93;;
56345;SDS011;42246;46.096;13.644;2022-10-16T10:30:43;15.43;;;9.63;;
56345;SDS011;42246;46.096;13.644;2022-10-16T10:33:27;13.25;;;9.20;;
56345;SDS011;42246;46.096;13.644;2022-10-16T10:36:28;13.85;;;9.48;;
56345;SDS011;42246;46.096;13.644;2022-10-16T10:39:22;14.30;;;9.85;;
56345;SDS011;42246;46.096;13.644;2022-10-16T10:41:59;15.93;;;10.43;;
56345;SDS011;42246;46.096;13.644;2022-10-16T10:47:01;15.68;;;10.30;;
56345;SDS011;42246;46.096;13.644;2022-10-16T11:09:12;18.58;;;10.35;;
56345;SDS011;42246;46.096;13.644;2022-10-16T11:11:43;14.55;;;8.70;;
56345;SDS011;42246;46.096;13.644;2022-10-16T11:16:40;19.42;;;11.07;;
56345;SDS011;42246;46.096;13.644;2022-10-16T11:19:12;25.33;;;13.40;;
56345;SDS011;42246;46.096;13.644;2022-10-16T11:21:56;20.98;;;13.00;;
56345;SDS011;42246;46.096;13.644;2022-10-16T11:24:35;29.02;;;13.27;;
56345;SDS011;42246;46.096;13.644;2022-10-16T11:27:08;22.15;;;15.07;;
56345;SDS011;42246;46.096;13.644;2022-10-16T11:29:34;22.55;;;12.20;;
56345;SDS011;42246;46.096;13.644;2022-10-16T11:32:06;25.60;;;16.33;;
56345;SDS011;42246;46.096;13.644;2022-10-16T11:34:47;26.02;;;15.13;;
56345;SDS011;42246;46.096;13.644;2022-10-16T11:37:23;25.60;;;14.80;;
56345;SDS011;42246;46.096;13.644;2022-10-16T11:39:52;26.77;;;13.52;;
56345;SDS011;42246;46.096;13.644;2022-10-16T11:42:21;24.60;;;14.20;;
56345;SDS011;42246;46.096;13.644;2022-10-16T11:47:40;27.52;;;13.60;;
56345;SDS011;42246;46.096;13.644;2022-10-16T11:50:12;26.50;;;14.30;;
56345;SDS011;42246;46.096;13.644;2022-10-16T11:55:31;22.90;;;13.55;;
56345;SDS011;42246;46.096;13.644;2022-10-16T11:58:34;26.70;;;15.65;;
56345;SDS011;42246;46.096;13.644;2022-10-16T12:01:15;24.83;;;13.70;;
56345;SDS011;42246;46.096;13.644;2022-10-16T12:06:49;19.13;;;12.20;;
56345;SDS011;42246;46.096;13.644;2022-10-16T12:11:51;22.60;;;15.00;;
56345;SDS011;42246;46.096;13.644;2022-10-16T12:14:18;20.90;;;13.93;;
56345;SDS011;42246;46.096;13.644;2022-10-16T12:16:53;23.05;;;12.43;;
56345;SDS011;42246;46.096;13.644;2022-10-16T12:19:26;22.63;;;12.75;;
56345;SDS011;42246;46.096;13.644;2022-10-16T12:21:57;19.55;;;12.80;;
56345;SDS011;42246;46.096;13.644;2022-10-16T12:24:38;22.88;;;13.65;;
56345;SDS011;42246;46.096;13.644;2022-10-16T12:27:17;21.88;;;12.02;;
56345;SDS011;42246;46.096;13.644;2022-10-16T12:29:48;20.27;;;13.32;;
56345;SDS011;42246;46.096;13.644;2022-10-16T12:32:28;16.70;;;11.90;;
56345;SDS011;42246;46.096;13.644;2022-10-16T12:34:56;20.70;;;13.02;;
56345;SDS011;42246;46.096;13.644;2022-10-16T12:37:23;25.23;;;15.25;;
56345;SDS011;42246;46.096;13.644;2022-10-16T12:39:51;25.08;;;14.90;;
56345;SDS011;42246;46.096;13.644;2022-10-16T12:44:52;22.45;;;12.73;;
56345;SDS011;42246;46.096;13.644;2022-10-16T12:47:37;23.80;;;13.25;;
56345;SDS011;42246;46.096;13.644;2022-10-16T12:50:28;25.73;;;14.25;;
56345;SDS011;42246;46.096;13.644;2022-10-16T12:52:56;23.25;;;13.52;;
56345;SDS011;42246;46.096;13.644;2022-10-16T12:55:22;19.42;;;13.32;;
56345;SDS011;42246;46.096;13.644;2022-10-16T13:00:36;24.38;;;14.70;;
56345;SDS011;42246;46.096;13.644;2022-10-16T13:03:24;26.58;;;14.10;;
56345;SDS011;42246;46.096;13.644;2022-10-16T13:11:26;18.85;;;13.27;;
56345;SDS011;42246;46.096;13.644;2022-10-16T13:17:02;21.17;;;12.85;;
56345;SDS011;42246;46.096;13.644;2022-10-16T13:24:48;21.95;;;13.25;;
56345;SDS011;42246;46.096;13.644;2022-10-16T13:30:11;22.88;;;12.32;;
56345;SDS011;42246;46.096;13.644;2022-10-16T13:32:45;24.20;;;14.52;;
56345;SDS011;42246;46.096;13.644;2022-10-16T13:35:21;27.52;;;15.25;;
56345;SDS011;42246;46.096;13.644;2022-10-16T13:38:11;28.60;;;15.82;;
56345;SDS011;42246;46.096;13.644;2022-10-16T13:40:47;34.33;;;16.38;;
56345;SDS011;42246;46.096;13.644;2022-10-16T13:43:15;34.75;;;18.35;;
56345;SDS011;42246;46.096;13.644;2022-10-16T13:45:51;33.58;;;17.20;;
56345;SDS011;42246;46.096;13.644;2022-10-16T13:48:18;36.90;;;18.40;;
56345;SDS011;42246;46.096;13.644;2022-10-16T13:50:43;21.67;;;12.98;;
56345;SDS011;42246;46.096;13.644;2022-10-16T13:53:13;25.33;;;13.40;;
56345;SDS011;42246;46.096;13.644;2022-10-16T13:55:39;21.30;;;13.18;;
56345;SDS011;42246;46.096;13.644;2022-10-16T13:58:07;19.50;;;10.55;;
56345;SDS011;42246;46.096;13.644;2022-10-16T14:00:33;19.65;;;12.88;;
56345;SDS011;42246;46.096;13.644;2022-10-16T14:03:01;25.15;;;14.75;;
56345;SDS011;42246;46.096;13.644;2022-10-16T14:05:29;20.50;;;11.95;;
56345;SDS011;42246;46.096;13.644;2022-10-16T14:07:55;19.73;;;12.30;;
56345;SDS011;42246;46.096;13.644;2022-10-16T14:10:22;20.65;;;12.85;;
56345;SDS011;42246;46.096;13.644;2022-10-16T14:12:56;21.58;;;11.13;;
56345;SDS011;42246;46.096;13.644;2022-10-16T14:15:26;16.15;;;9.73;;
56345;SDS011;42246;46.096;13.644;2022-10-16T14:17:52;14.52;;;9.45;;
56345;SDS011;42246;46.096;13.644;2022-10-16T14:20:18;17.38;;;9.10;;
56345;SDS011;42246;46.096;13.644;2022-10-16T14:22:46;16.73;;;9.70;;
56345;SDS011;42246;46.096;13.644;2022-10-16T14:30:30;14.25;;;9.15;;
56345;SDS011;42246;46.096;13.644;2022-10-16T14:32:58;14.85;;;9.45;;
56345;SDS011;42246;46.096;13.644;2022-10-16T14:35:26;18.80;;;9.18;;
56345;SDS011;42246;46.096;13.644;2022-10-16T14:37:53;17.15;;;9.30;;
56345;SDS011;42246;46.096;13.644;2022-10-16T14:40:20;16.75;;;11.55;;
56345;SDS011;42246;46.096;13.644;2022-10-16T14:42:48;19.70;;;12.40;;
56345;SDS011;42246;46.096;13.644;2022-10-16T14:45:15;15.68;;;9.18;;
56345;SDS011;42246;46.096;13.644;2022-10-16T14:47:52;15.73;;;9.52;;
56345;SDS011;42246;46.096;13.644;2022-10-16T14:50:19;12.00;;;8.45;;
56345;SDS011;42246;46.096;13.644;2022-10-16T14:52:44;15.63;;;10.65;;
56345;SDS011;42246;46.096;13.644;2022-10-16T14:55:10;15.52;;;10.20;;
56345;SDS011;42246;46.096;13.644;2022-10-16T14:57:36;12.23;;;8.05;;
56345;SDS011;42246;46.096;13.644;2022-10-16T15:00:06;13.27;;;8.60;;
56345;SDS011;42246;46.096;13.644;2022-10-16T15:02:35;11.13;;;8.43;;
56345;SDS011;42246;46.096;13.644;2022-10-16T15:05:36;13.27;;;8.82;;
56345;SDS011;42246;46.096;13.644;2022-10-16T15:07:57;13.70;;;8.77;;
56345;SDS011;42246;46.096;13.644;2022-10-16T15:10:23;11.38;;;7.97;;
56345;SDS011;42246;46.096;13.644;2022-10-16T15:12:49;11.30;;;7.95;;
56345;SDS011;42246;46.096;13.644;2022-10-16T15:15:23;14.35;;;8.02;;
56345;SDS011;42246;46.096;13.644;2022-10-16T15:17:55;14.57;;;10.10;;
56345;SDS011;42246;46.096;13.644;2022-10-16T15:20:23;13.82;;;8.93;;
56345;SDS011;42246;46.096;13.644;2022-10-16T15:22:49;12.70;;;8.77;;
56345;SDS011;42246;46.096;13.644;2022-10-16T15:28:20;13.68;;;7.78;;
56345;SDS011;42246;46.096;13.644;2022-10-16T15:30:46;9.60;;;7.18;;
56345;SDS011;42246;46.096;13.644;2022-10-16T15:33:16;12.55;;;7.50;;
56345;SDS011;42246;46.096;13.644;2022-10-16T15:35:42;12.40;;;8.52;;
56345;SDS011;42246;46.096;13.644;2022-10-16T15:38:10;12.68;;;7.68;;
56345;SDS011;42246;46.096;13.644;2022-10-16T15:40:37;9.52;;;6.20;;
56345;SDS011;42246;46.096;13.644;2022-10-16T15:43:03;11.38;;;6.82;;
56345;SDS011;42246;46.096;13.644;2022-10-16T15:45:29;8.90;;;7.20;;
56345;SDS011;42246;46.096;13.644;2022-10-16T15:47:54;11.88;;;7.20;;
56345;SDS011;42246;46.096;13.644;2022-10-16T15:50:19;12.95;;;6.82;;
56345;SDS011;42246;46.096;13.644;2022-10-16T15:52:45;11.25;;;7.50;;
56345;SDS011;42246;46.096;13.644;2022-10-16T15:55:11;10.07;;;7.63;;
56345;SDS011;42246;46.096;13.644;2022-10-16T15:57:38;19.17;;;7.60;;
56345;SDS011;42246;46.096;13.644;2022-10-16T16:00:09;14.63;;;7.88;;
56345;SDS011;42246;46.096;13.644;2022-10-16T16:02:36;9.48;;;7.25;;
56345;SDS011;42246;46.096;13.644;2022-10-16T16:05:02;19.00;;;7.75;;
56345;SDS011;42246;46.096;13.644;2022-10-16T16:07:28;12.48;;;8.38;;
56345;SDS011;42246;46.096;13.644;2022-10-16T16:09:57;13.77;;;8.63;;
56345;SDS011;42246;46.096;13.644;2022-10-16T16:12:22;11.45;;;7.50;;
56345;SDS011;42246;46.096;13.644;2022-10-16T16:14:48;16.20;;;9.85;;
56345;SDS011;42246;46.096;13.644;2022-10-16T16:17:14;16.00;;;9.15;;
56345;SDS011;42246;46.096;13.644;2022-10-16T16:19:39;16.10;;;9.77;;
56345;SDS011;42246;46.096;13.644;2022-10-16T16:22:05;11.32;;;7.70;;
56345;SDS011;42246;46.096;13.644;2022-10-16T16:24:30;14.38;;;8.88;;
56345;SDS011;42246;46.096;13.644;2022-10-16T16:26:56;15.27;;;9.90;;